createdAt,value
2023-03-10T00:00:33.641Z,0.00
2023-03-10T00:01:33.641Z,0.00
2023-03-10T00:02:33.645Z,0.00
2023-03-10T00:03:33.631Z,0.00
2023-03-10T00:04:33.734Z,0.00
2023-03-10T00:05:33.649Z,0.00
2023-03-10T00:06:33.585Z,0.00
2023-03-10T00:07:33.588Z,0.00
2023-03-10T00:08:33.559Z,0.00
2023-03-10T00:09:33.657Z,0.00
2023-03-10T00:10:33.529Z,0.00
2023-03-10T00:11:33.523Z,0.00
2023-03-10T00:12:33.504Z,0.00
2023-03-10T00:13:33.522Z,0.00
2023-03-10T00:14:33.493Z,0.00
2023-03-10T00:15:33.526Z,0.00
2023-03-10T00:16:33.457Z,0.00
2023-03-10T00:17:33.469Z,0.00
2023-03-10T00:18:33.461Z,0.00
2023-03-10T00:19:33.427Z,0.00
2023-03-10T00:20:33.426Z,0.00
2023-03-10T00:21:33.404Z,0.00
2023-03-10T00:22:33.387Z,0.00
2023-03-10T00:23:35.690Z,0.00
2023-03-10T00:24:33.364Z,0.00
2023-03-10T00:25:33.381Z,0.00
2023-03-10T00:26:33.364Z,0.00
2023-03-10T00:27:33.337Z,0.00
2023-03-10T00:28:33.335Z,0.00
2023-03-10T00:29:33.340Z,0.00
2023-03-10T00:30:33.295Z,0.00
2023-03-10T00:31:33.322Z,0.00
2023-03-10T00:32:33.344Z,0.00
2023-03-10T00:33:33.295Z,0.00
2023-03-10T00:34:33.252Z,0.00
2023-03-10T00:35:33.265Z,0.00
2023-03-10T00:36:33.237Z,0.00
2023-03-10T00:37:33.229Z,0.00
2023-03-10T00:38:33.238Z,0.00
2023-03-10T00:39:33.200Z,0.00
2023-03-10T00:40:33.183Z,0.00
2023-03-10T00:41:33.199Z,0.00
2023-03-10T00:42:33.190Z,0.00
2023-03-10T00:43:33.175Z,0.00
2023-03-10T00:44:33.149Z,0.00
2023-03-10T00:45:33.132Z,0.00
2023-03-10T00:46:33.401Z,0.00
2023-03-10T00:47:33.137Z,0.00
2023-03-10T00:48:33.095Z,0.00
2023-03-10T00:49:33.103Z,0.00
2023-03-10T00:50:33.082Z,0.00
2023-03-10T00:51:33.064Z,0.00
2023-03-10T00:52:33.055Z,0.00
2023-03-10T00:53:33.065Z,0.00
2023-03-10T00:54:33.024Z,0.00
2023-03-10T00:55:33.019Z,0.00
2023-03-10T00:56:33.022Z,0.00
2023-03-10T00:57:33.016Z,0.00
2023-03-10T00:58:33.002Z,0.00
2023-03-10T00:59:47.849Z,0.00
2023-03-10T01:00:33.954Z,0.00
2023-03-10T01:01:33.052Z,0.00
2023-03-10T01:02:32.944Z,0.00
2023-03-10T01:03:32.931Z,0.00
2023-03-10T01:04:33.001Z,0.00
2023-03-10T01:05:32.925Z,0.00
2023-03-10T01:06:32.894Z,0.00
2023-03-10T01:07:32.888Z,0.00
2023-03-10T01:08:32.874Z,0.00
2023-03-10T01:09:32.875Z,0.00
2023-03-10T01:10:32.839Z,0.00
2023-03-10T01:11:32.837Z,0.00
2023-03-10T01:12:32.821Z,0.00
2023-03-10T01:13:32.826Z,0.00
2023-03-10T01:14:32.828Z,0.00
2023-03-10T01:15:32.793Z,0.00
2023-03-10T01:16:32.882Z,0.00
2023-03-10T01:17:32.760Z,0.00
2023-03-10T01:18:32.752Z,0.00
2023-03-10T01:19:32.825Z,0.00
2023-03-10T01:20:32.741Z,0.00
2023-03-10T01:21:32.712Z,0.00
2023-03-10T01:22:32.707Z,0.00
2023-03-10T01:23:32.697Z,0.00
2023-03-10T01:24:32.704Z,0.00
2023-03-10T01:25:32.665Z,0.00
2023-03-10T01:26:32.673Z,0.00
2023-03-10T01:27:32.652Z,0.00
2023-03-10T01:28:32.649Z,0.00
2023-03-10T01:29:32.787Z,0.00
2023-03-10T01:30:32.614Z,0.00
2023-03-10T01:31:32.663Z,0.00
2023-03-10T01:32:32.666Z,0.00
2023-03-10T01:33:32.571Z,0.00
2023-03-10T01:34:32.596Z,0.00
2023-03-10T01:35:32.618Z,0.00
2023-03-10T01:36:32.567Z,0.00
2023-03-10T01:37:32.553Z,0.00
2023-03-10T01:38:32.530Z,0.00
2023-03-10T01:39:32.505Z,0.00
2023-03-10T01:40:32.494Z,0.00
2023-03-10T01:41:32.480Z,0.00
2023-03-10T01:42:32.499Z,0.00
2023-03-10T01:43:32.455Z,0.00
2023-03-10T01:44:32.476Z,0.00
2023-03-10T01:45:32.449Z,0.00
2023-03-10T01:46:32.496Z,0.00
2023-03-10T01:47:32.418Z,0.00
2023-03-10T01:48:32.406Z,0.00
2023-03-10T01:49:32.402Z,0.00
2023-03-10T01:50:32.409Z,0.00
2023-03-10T01:51:32.363Z,0.00
2023-03-10T01:52:32.368Z,0.00
2023-03-10T01:53:32.359Z,0.00
2023-03-10T01:54:32.334Z,0.00
2023-03-10T01:55:32.339Z,0.00
2023-03-10T01:56:32.316Z,0.00
2023-03-10T01:57:32.317Z,0.00
2023-03-10T01:58:32.289Z,0.00
2023-03-10T01:59:32.290Z,0.00
2023-03-10T02:00:32.328Z,0.00
2023-03-10T02:01:32.270Z,0.00
2023-03-10T02:02:32.259Z,0.00
2023-03-10T02:03:32.230Z,0.00
2023-03-10T02:04:32.220Z,0.00
2023-03-10T02:05:32.223Z,0.00
2023-03-10T02:06:32.199Z,0.00
2023-03-10T02:07:32.182Z,0.00
2023-03-10T02:08:32.188Z,0.00
2023-03-10T02:09:32.154Z,0.00
2023-03-10T02:10:32.175Z,0.00
2023-03-10T02:11:32.132Z,0.00
2023-03-10T02:12:32.148Z,0.00
2023-03-10T02:13:32.145Z,0.00
2023-03-10T02:14:32.114Z,0.00
2023-03-10T02:15:32.091Z,0.00
2023-03-10T02:16:32.120Z,0.00
2023-03-10T02:17:32.176Z,0.00
2023-03-10T02:18:32.066Z,0.00
2023-03-10T02:19:32.065Z,0.00
2023-03-10T02:20:32.052Z,0.00
2023-03-10T02:21:32.038Z,0.00
2023-03-10T02:22:32.035Z,0.00
2023-03-10T02:23:31.999Z,0.00
2023-03-10T02:24:31.998Z,0.00
2023-03-10T02:25:31.992Z,0.00
2023-03-10T02:26:31.984Z,0.00
2023-03-10T02:27:31.973Z,0.00
2023-03-10T02:28:31.948Z,0.00
2023-03-10T02:29:31.931Z,0.00
2023-03-10T02:30:31.921Z,0.00
2023-03-10T02:31:31.929Z,0.00
2023-03-10T02:32:32.081Z,0.00
2023-03-10T02:33:31.967Z,0.00
2023-03-10T02:34:31.877Z,0.00
2023-03-10T02:35:31.886Z,0.00
2023-03-10T02:36:31.958Z,0.00
2023-03-10T02:37:31.866Z,0.00
2023-03-10T02:38:31.841Z,0.00
2023-03-10T02:39:31.840Z,0.00
2023-03-10T02:40:31.806Z,0.00
2023-03-10T02:41:31.823Z,0.00
2023-03-10T02:42:31.821Z,0.00
2023-03-10T02:43:31.780Z,0.00
2023-03-10T02:44:31.786Z,0.00
2023-03-10T02:45:31.812Z,0.00
2023-03-10T02:46:31.870Z,0.00
2023-03-10T02:47:31.757Z,0.00
2023-03-10T02:48:31.715Z,0.00
2023-03-10T02:49:31.720Z,0.00
2023-03-10T02:50:31.692Z,0.00
2023-03-10T02:51:31.703Z,0.00
2023-03-10T02:52:31.681Z,0.00
2023-03-10T02:53:31.648Z,0.00
2023-03-10T02:54:31.643Z,0.00
2023-03-10T02:55:31.628Z,0.00
2023-03-10T02:56:31.637Z,0.00
2023-03-10T02:57:31.616Z,0.00
2023-03-10T02:58:31.593Z,0.00
2023-03-10T02:59:31.612Z,0.00
2023-03-10T03:00:31.577Z,0.00
2023-03-10T03:01:31.584Z,0.00
2023-03-10T03:02:31.551Z,0.00
2023-03-10T03:03:31.570Z,0.00
2023-03-10T03:04:31.544Z,0.00
2023-03-10T03:05:31.597Z,0.00
2023-03-10T03:06:31.505Z,0.00
2023-03-10T03:07:31.487Z,0.00
2023-03-10T03:08:31.481Z,0.00
2023-03-10T03:09:31.494Z,0.00
2023-03-10T03:10:31.458Z,0.00
2023-03-10T03:11:31.439Z,0.00
2023-03-10T03:12:31.480Z,0.00
2023-03-10T03:13:31.421Z,0.00
2023-03-10T03:14:31.451Z,0.00
2023-03-10T03:15:31.407Z,0.00
2023-03-10T03:16:31.463Z,0.00
2023-03-10T03:17:31.375Z,0.00
2023-03-10T03:18:31.369Z,0.00
2023-03-10T03:19:31.373Z,0.00
2023-03-10T03:20:31.348Z,0.00
2023-03-10T03:21:31.341Z,0.00
2023-03-10T03:22:31.320Z,0.00
2023-03-10T03:23:31.333Z,0.00
2023-03-10T03:24:31.310Z,0.00
2023-03-10T03:25:31.280Z,0.00
2023-03-10T03:26:31.303Z,0.00
2023-03-10T03:27:31.274Z,0.00
2023-03-10T03:28:31.250Z,0.00
2023-03-10T03:29:31.238Z,0.00
2023-03-10T03:30:31.228Z,0.00
2023-03-10T03:31:31.345Z,0.00
2023-03-10T03:32:31.319Z,0.00
2023-03-10T03:33:31.226Z,0.00
2023-03-10T03:34:31.185Z,0.00
2023-03-10T03:35:31.215Z,0.00
2023-03-10T03:36:31.166Z,0.00
2023-03-10T03:37:31.161Z,0.00
2023-03-10T03:38:31.156Z,0.00
2023-03-10T03:39:31.209Z,0.00
2023-03-10T03:40:31.113Z,0.00
2023-03-10T03:41:31.097Z,0.00
2023-03-10T03:42:31.091Z,0.00
2023-03-10T03:43:31.099Z,0.00
2023-03-10T03:44:31.068Z,0.00
2023-03-10T03:45:31.089Z,0.00
2023-03-10T03:46:31.089Z,0.00
2023-03-10T03:47:31.025Z,0.00
2023-03-10T03:48:31.027Z,0.00
2023-03-10T03:49:31.022Z,0.00
2023-03-10T03:50:31.011Z,0.00
2023-03-10T03:51:31.018Z,0.00
2023-03-10T03:52:30.984Z,0.00
2023-03-10T03:53:30.991Z,0.00
2023-03-10T03:54:30.989Z,0.00
2023-03-10T03:55:30.960Z,0.00
2023-03-10T03:56:30.947Z,0.00
2023-03-10T03:57:30.927Z,0.00
2023-03-10T03:58:30.909Z,0.00
2023-03-10T03:59:30.890Z,0.00
2023-03-10T04:00:30.907Z,0.00
2023-03-10T04:01:30.871Z,0.00
2023-03-10T04:02:30.978Z,0.00
2023-03-10T04:03:30.910Z,0.00
2023-03-10T04:04:30.860Z,0.00
2023-03-10T04:05:30.828Z,0.00
2023-03-10T04:06:30.820Z,0.00
2023-03-10T04:07:30.800Z,0.00
2023-03-10T04:08:30.801Z,0.00
2023-03-10T04:09:30.866Z,0.00
2023-03-10T04:10:30.778Z,0.00
2023-03-10T04:11:30.756Z,0.00
2023-03-10T04:12:30.765Z,0.00
2023-03-10T04:13:30.758Z,0.00
2023-03-10T04:14:30.848Z,0.00
2023-03-10T04:15:30.779Z,0.00
2023-03-10T04:16:30.702Z,0.00
2023-03-10T04:17:30.700Z,0.00
2023-03-10T04:18:30.680Z,0.00
2023-03-10T04:19:30.686Z,0.00
2023-03-10T04:20:30.676Z,0.00
2023-03-10T04:21:30.639Z,0.00
2023-03-10T04:22:30.647Z,0.00
2023-03-10T04:23:30.633Z,0.00
2023-03-10T04:24:30.656Z,0.00
2023-03-10T04:25:30.622Z,0.00
2023-03-10T04:26:30.605Z,0.00
2023-03-10T04:27:30.572Z,0.00
2023-03-10T04:28:30.564Z,0.00
2023-03-10T04:29:30.572Z,0.00
2023-03-10T04:30:30.543Z,0.00
2023-03-10T04:31:30.597Z,0.00
2023-03-10T04:32:30.566Z,0.00
2023-03-10T04:33:30.508Z,0.00
2023-03-10T04:34:30.517Z,0.00
2023-03-10T04:35:30.482Z,0.00
2023-03-10T04:36:30.477Z,0.00
2023-03-10T04:37:30.460Z,0.00
2023-03-10T04:38:30.461Z,0.00
2023-03-10T04:39:30.454Z,0.00
2023-03-10T04:40:30.437Z,0.00
2023-03-10T04:41:30.445Z,0.00
2023-03-10T04:42:30.427Z,0.00
2023-03-10T04:43:30.408Z,0.00
2023-03-10T04:44:31.625Z,0.00
2023-03-10T04:45:30.367Z,0.00
2023-03-10T04:46:30.452Z,0.00
2023-03-10T04:47:30.344Z,0.00
2023-03-10T04:48:30.357Z,0.00
2023-03-10T04:49:30.323Z,0.00
2023-03-10T04:50:30.334Z,0.00
2023-03-10T04:51:30.304Z,0.00
2023-03-10T04:52:30.294Z,0.00
2023-03-10T04:53:30.294Z,0.00
2023-03-10T04:54:30.271Z,0.00
2023-03-10T04:55:30.251Z,0.00
2023-03-10T04:56:30.258Z,0.00
2023-03-10T04:57:30.247Z,0.00
2023-03-10T04:58:30.241Z,0.00
2023-03-10T04:59:30.199Z,0.00
2023-03-10T05:00:30.274Z,0.00
2023-03-10T05:01:30.221Z,0.00
2023-03-10T05:02:30.185Z,0.00
2023-03-10T05:03:30.173Z,0.00
2023-03-10T05:04:30.242Z,0.00
2023-03-10T05:05:30.133Z,0.00
2023-03-10T05:06:30.177Z,0.00
2023-03-10T05:07:30.103Z,0.00
2023-03-10T05:08:30.127Z,0.00
2023-03-10T05:09:30.111Z,0.00
2023-03-10T05:10:30.089Z,0.00
2023-03-10T05:11:30.090Z,0.00
2023-03-10T05:12:30.057Z,0.00
2023-03-10T05:13:31.826Z,0.00
2023-03-10T05:14:30.043Z,4.00
2023-03-10T05:15:30.018Z,0.00
2023-03-10T05:16:30.111Z,4.00
2023-03-10T05:17:30.035Z,4.00
2023-03-10T05:18:29.986Z,4.00
2023-03-10T05:19:30.009Z,8.00
2023-03-10T05:20:29.993Z,8.00
2023-03-10T05:21:29.977Z,8.00
2023-03-10T05:22:29.936Z,8.00
2023-03-10T05:23:29.917Z,12.00
2023-03-10T05:24:29.915Z,8.00
2023-03-10T05:25:29.895Z,12.00
2023-03-10T05:26:29.924Z,12.00
2023-03-10T05:27:29.879Z,12.00
2023-03-10T05:28:29.858Z,12.00
2023-03-10T05:29:29.876Z,12.00
2023-03-10T05:30:29.858Z,16.00
2023-03-10T05:31:30.143Z,20.00
2023-03-10T05:32:29.860Z,20.00
2023-03-10T05:33:31.513Z,20.00
2023-03-10T05:34:29.791Z,28.00
2023-03-10T05:35:29.812Z,32.00
2023-03-10T05:36:29.771Z,32.00
2023-03-10T05:37:29.770Z,32.00
2023-03-10T05:38:29.759Z,36.00
2023-03-10T05:39:29.757Z,40.00
2023-03-10T05:40:29.728Z,40.00
2023-03-10T05:41:29.742Z,40.00
2023-03-10T05:42:29.703Z,40.00
2023-03-10T05:43:29.752Z,36.00
2023-03-10T05:44:29.765Z,44.00
2023-03-10T05:45:29.686Z,44.00
2023-03-10T05:46:29.838Z,52.00
2023-03-10T05:47:29.803Z,56.00
2023-03-10T05:48:29.638Z,56.00
2023-03-10T05:49:29.646Z,52.00
2023-03-10T05:50:29.654Z,56.00
2023-03-10T05:51:29.626Z,56.00
2023-03-10T05:52:29.594Z,68.00
2023-03-10T05:53:29.612Z,76.00
2023-03-10T05:54:29.572Z,92.00
2023-03-10T05:55:29.580Z,108.00
2023-03-10T05:56:29.571Z,124.00
2023-03-10T05:57:29.555Z,136.00
2023-03-10T05:58:29.528Z,144.00
2023-03-10T05:59:29.514Z,164.00
2023-03-10T06:00:29.526Z,180.00
2023-03-10T06:01:29.524Z,184.00
2023-03-10T06:02:29.507Z,180.00
2023-03-10T06:03:29.610Z,192.00
2023-03-10T06:04:29.571Z,224.00
2023-03-10T06:05:29.485Z,244.00
2023-03-10T06:06:29.430Z,264.00
2023-03-10T06:07:29.469Z,296.00
2023-03-10T06:08:29.419Z,316.00
2023-03-10T06:09:29.400Z,328.00
2023-03-10T06:10:29.414Z,328.00
2023-03-10T06:11:29.401Z,324.00
2023-03-10T06:12:29.368Z,352.00
2023-03-10T06:13:29.356Z,368.00
2023-03-10T06:14:29.344Z,388.00
2023-03-10T06:15:29.333Z,404.00
2023-03-10T06:16:29.397Z,416.00
2023-03-10T06:17:29.346Z,416.00
2023-03-10T06:18:29.331Z,400.00
2023-03-10T06:19:29.325Z,376.00
2023-03-10T06:20:29.301Z,380.00
2023-03-10T06:21:29.321Z,364.00
2023-03-10T06:22:31.252Z,336.00
2023-03-10T06:23:29.240Z,328.00
2023-03-10T06:24:29.223Z,308.00
2023-03-10T06:25:29.215Z,292.00
2023-03-10T06:26:29.232Z,284.00
2023-03-10T06:27:29.193Z,280.00
2023-03-10T06:28:29.175Z,276.00
2023-03-10T06:29:29.178Z,264.00
2023-03-10T06:30:29.157Z,260.00
2023-03-10T06:31:29.333Z,256.00
2023-03-10T06:32:29.186Z,248.00
2023-03-10T06:33:29.143Z,236.00
2023-03-10T06:34:29.113Z,216.00
2023-03-10T06:35:29.105Z,200.00
2023-03-10T06:36:29.107Z,188.00
2023-03-10T06:37:29.125Z,184.00
2023-03-10T06:38:29.093Z,184.00
2023-03-10T06:39:29.126Z,192.00
2023-03-10T06:40:29.051Z,208.00
2023-03-10T06:41:29.048Z,224.00
2023-03-10T06:42:29.083Z,248.00
2023-03-10T06:43:29.013Z,288.00
2023-03-10T06:44:29.015Z,312.00
2023-03-10T06:45:28.991Z,320.00
2023-03-10T06:46:28.998Z,320.00
2023-03-10T06:47:28.966Z,320.00
2023-03-10T06:48:28.975Z,320.00
2023-03-10T06:49:28.958Z,348.00
2023-03-10T06:50:31.509Z,372.00
2023-03-10T06:51:28.922Z,384.00
2023-03-10T06:52:28.922Z,436.00
2023-03-10T06:53:28.898Z,488.00
2023-03-10T06:54:28.889Z,536.00
2023-03-10T06:55:28.880Z,580.00
2023-03-10T06:56:28.895Z,644.00
2023-03-10T06:57:28.860Z,616.00
2023-03-10T06:58:28.837Z,600.00
2023-03-10T06:59:28.829Z,628.00
2023-03-10T07:00:28.836Z,672.00
2023-03-10T07:01:29.112Z,668.00
2023-03-10T07:02:28.817Z,708.00
2023-03-10T07:03:28.805Z,740.00
2023-03-10T07:04:28.815Z,800.00
2023-03-10T07:05:28.867Z,868.00
2023-03-10T07:06:28.744Z,868.00
2023-03-10T07:07:28.743Z,988.00
2023-03-10T07:08:28.747Z,1052.00
2023-03-10T07:09:28.747Z,1244.00
2023-03-10T07:10:28.691Z,1456.00
2023-03-10T07:11:28.686Z,1644.00
2023-03-10T07:12:28.671Z,1784.00
2023-03-10T07:13:28.725Z,1944.00
2023-03-10T07:14:28.686Z,1876.00
2023-03-10T07:15:28.640Z,1724.00
2023-03-10T07:16:28.636Z,1812.00
2023-03-10T07:17:28.614Z,1816.00
2023-03-10T07:18:28.624Z,1748.00
2023-03-10T07:19:28.596Z,1988.00
2023-03-10T07:20:28.587Z,1848.00
2023-03-10T07:21:28.613Z,1768.00
2023-03-10T07:22:28.571Z,2196.00
2023-03-10T07:23:28.551Z,2608.00
2023-03-10T07:24:28.557Z,2740.00
2023-03-10T07:25:28.517Z,2752.00
2023-03-10T07:26:28.537Z,2692.00
2023-03-10T07:27:28.497Z,2504.00
2023-03-10T07:28:28.477Z,2712.00
2023-03-10T07:29:28.475Z,2600.00
2023-03-10T07:30:28.507Z,2540.00
2023-03-10T07:31:28.538Z,2688.00
2023-03-10T07:32:28.571Z,2848.00
2023-03-10T07:33:28.434Z,2888.00
2023-03-10T07:34:28.422Z,2884.00
2023-03-10T07:35:28.404Z,2936.00
2023-03-10T07:36:28.388Z,3004.00
2023-03-10T07:37:28.404Z,3120.00
2023-03-10T07:38:28.407Z,2800.00
2023-03-10T07:39:28.363Z,3144.00
2023-03-10T07:40:28.400Z,3724.00
2023-03-10T07:41:28.351Z,3076.00
2023-03-10T07:42:28.334Z,1984.00
2023-03-10T07:43:28.312Z,1528.00
2023-03-10T07:44:28.341Z,1300.00
2023-03-10T07:45:28.330Z,1272.00
2023-03-10T07:46:28.396Z,1464.00
2023-03-10T07:47:28.283Z,1808.00
2023-03-10T07:48:28.254Z,2184.00
2023-03-10T07:49:28.278Z,2320.00
2023-03-10T07:50:28.300Z,2416.00
2023-03-10T07:51:28.253Z,2476.00
2023-03-10T07:52:28.208Z,2700.00
2023-03-10T07:53:28.232Z,2692.00
2023-03-10T07:54:28.182Z,2792.00
2023-03-10T07:55:28.213Z,3136.00
2023-03-10T07:56:28.177Z,3180.00
2023-03-10T07:57:28.159Z,3296.00
2023-03-10T07:58:28.138Z,2628.00
2023-03-10T07:59:28.151Z,2836.00
2023-03-10T08:00:28.198Z,2812.00
2023-03-10T08:01:28.124Z,2940.00
2023-03-10T08:02:28.112Z,3000.00
2023-03-10T08:03:28.155Z,2832.00
2023-03-10T08:04:28.227Z,2732.00
2023-03-10T08:05:28.206Z,2892.00
2023-03-10T08:06:28.069Z,2856.00
2023-03-10T08:07:28.068Z,2904.00
2023-03-10T08:08:28.035Z,2776.00
2023-03-10T08:09:28.043Z,2656.00
2023-03-10T08:10:28.048Z,2368.00
2023-03-10T08:11:28.002Z,2280.00
2023-03-10T08:12:27.983Z,2280.00
2023-03-10T08:13:28.040Z,2216.00
2023-03-10T08:14:27.986Z,2016.00
2023-03-10T08:15:27.972Z,1560.00
2023-03-10T08:16:27.985Z,1196.00
2023-03-10T08:17:27.933Z,1188.00
2023-03-10T08:18:27.912Z,1172.00
2023-03-10T08:19:27.955Z,1036.00
2023-03-10T08:20:27.896Z,1036.00
2023-03-10T08:21:27.894Z,1004.00
2023-03-10T08:22:27.865Z,972.00
2023-03-10T08:23:27.875Z,932.00
2023-03-10T08:24:27.845Z,992.00
2023-03-10T08:25:27.859Z,1236.00
2023-03-10T08:26:27.852Z,1644.00
2023-03-10T08:27:29.125Z,2112.00
2023-03-10T08:28:27.817Z,2496.00
2023-03-10T08:29:27.793Z,2700.00
2023-03-10T08:30:27.769Z,2964.00
2023-03-10T08:31:27.854Z,2740.00
2023-03-10T08:32:27.805Z,2568.00
2023-03-10T08:33:27.767Z,2540.00
2023-03-10T08:34:27.725Z,2732.00
2023-03-10T08:35:27.719Z,2712.00
2023-03-10T08:36:27.705Z,2488.00
2023-03-10T08:37:27.724Z,2352.00
2023-03-10T08:38:27.714Z,2344.00
2023-03-10T08:39:27.824Z,2256.00
2023-03-10T08:40:27.665Z,2228.00
2023-03-10T08:41:27.700Z,2220.00
2023-03-10T08:42:27.641Z,2208.00
2023-03-10T08:43:27.665Z,2248.00
2023-03-10T08:44:27.628Z,2356.00
2023-03-10T08:45:27.623Z,2740.00
2023-03-10T08:46:27.633Z,3328.00
2023-03-10T08:47:30.467Z,3572.00
2023-03-10T08:48:27.566Z,3420.00
2023-03-10T08:49:27.596Z,3228.00
2023-03-10T08:50:27.556Z,2932.00
2023-03-10T08:51:27.540Z,2428.00
2023-03-10T08:52:27.528Z,2644.00
2023-03-10T08:53:27.539Z,2596.00
2023-03-10T08:54:27.521Z,2848.00
2023-03-10T08:55:27.501Z,2796.00
2023-03-10T08:56:27.517Z,2876.00
2023-03-10T08:57:27.538Z,2940.00
2023-03-10T08:58:27.464Z,2640.00
2023-03-10T08:59:27.471Z,2544.00
2023-03-10T09:00:27.444Z,2440.00
2023-03-10T09:01:27.439Z,2648.00
2023-03-10T09:02:27.495Z,2796.00
2023-03-10T09:03:29.596Z,2716.00
2023-03-10T09:04:27.405Z,2836.00
2023-03-10T09:05:27.426Z,2668.00
2023-03-10T09:06:27.369Z,2752.00
2023-03-10T09:07:27.429Z,2984.00
2023-03-10T09:08:28.002Z,3580.00
2023-03-10T09:09:27.340Z,3644.00
2023-03-10T09:10:27.358Z,3156.00
2023-03-10T09:11:27.358Z,2904.00
2023-03-10T09:12:33.192Z,2300.00
2023-03-10T09:13:29.383Z,2336.00
2023-03-10T09:14:27.291Z,2180.00
2023-03-10T09:15:27.276Z,2120.00
2023-03-10T09:16:27.304Z,2184.00
2023-03-10T09:17:27.242Z,2368.00
2023-03-10T09:18:27.261Z,2260.00
2023-03-10T09:19:27.219Z,2420.00
2023-03-10T09:20:29.332Z,2132.00
2023-03-10T09:21:27.219Z,1984.00
2023-03-10T09:22:27.209Z,1804.00
2023-03-10T09:23:27.193Z,1816.00
2023-03-10T09:24:27.161Z,2024.00
2023-03-10T09:25:27.149Z,2328.00
2023-03-10T09:26:27.147Z,2504.00
2023-03-10T09:27:27.173Z,2612.00
2023-03-10T09:28:27.109Z,2632.00
2023-03-10T09:29:42.052Z,2628.00
2023-03-10T09:30:28.086Z,2636.00
2023-03-10T09:31:27.182Z,2460.00
2023-03-10T09:32:27.129Z,2604.00
2023-03-10T09:33:27.068Z,2580.00
2023-03-10T09:34:27.045Z,2568.00
2023-03-10T09:35:27.105Z,2532.00
2023-03-10T09:36:27.101Z,2668.00
2023-03-10T09:37:27.029Z,2764.00
2023-03-10T09:38:27.031Z,2948.00
2023-03-10T09:39:26.991Z,3264.00
2023-03-10T09:40:26.992Z,3848.00
2023-03-10T09:41:26.974Z,3880.00
2023-03-10T09:42:37.436Z,4140.00
2023-03-10T09:43:27.965Z,4144.00
2023-03-10T09:44:26.949Z,3624.00
2023-03-10T09:45:26.951Z,3372.00
2023-03-10T09:46:26.921Z,2956.00
2023-03-10T09:47:26.899Z,2940.00
2023-03-10T09:48:26.914Z,2700.00
2023-03-10T09:49:26.925Z,2688.00
2023-03-10T09:50:26.880Z,2548.00
2023-03-10T09:51:26.851Z,2548.00
2023-03-10T09:52:26.875Z,2532.00
2023-03-10T09:53:26.850Z,2616.00
2023-03-10T09:54:26.863Z,2628.00
2023-03-10T09:55:26.802Z,2548.00
2023-03-10T09:56:28.943Z,2488.00
2023-03-10T09:57:26.807Z,2568.00
2023-03-10T09:58:26.775Z,2576.00
2023-03-10T09:59:26.792Z,2712.00
2023-03-10T10:00:27.498Z,2808.00
2023-03-10T10:01:26.773Z,2896.00
2023-03-10T10:02:26.725Z,3000.00
2023-03-10T10:03:26.738Z,2920.00
2023-03-10T10:04:26.797Z,3040.00
2023-03-10T10:05:26.729Z,3104.00
2023-03-10T10:06:28.493Z,3116.00
2023-03-10T10:07:26.710Z,2976.00
2023-03-10T10:08:28.686Z,3024.00
2023-03-10T10:09:26.642Z,3152.00
2023-03-10T10:10:26.650Z,3200.00
2023-03-10T10:11:29.604Z,3356.00
2023-03-10T10:12:26.633Z,3280.00
2023-03-10T10:13:26.612Z,3484.00
2023-03-10T10:14:30.004Z,3412.00
2023-03-10T10:15:26.571Z,3372.00
2023-03-10T10:16:34.225Z,3192.00
2023-03-10T10:17:27.632Z,3292.00
2023-03-10T10:18:26.728Z,3388.00
2023-03-10T10:19:26.535Z,3004.00
2023-03-10T10:20:26.520Z,2936.00
2023-03-10T10:21:33.615Z,2820.00
2023-03-10T10:22:27.530Z,2600.00
2023-03-10T10:23:26.482Z,2616.00
2023-03-10T10:24:26.493Z,2380.00
2023-03-10T10:25:26.464Z,2312.00
2023-03-10T10:26:26.505Z,2240.00
2023-03-10T10:27:26.566Z,2228.00
2023-03-10T10:28:27.258Z,2224.00
2023-03-10T10:29:26.436Z,2288.00
2023-03-10T10:30:27.282Z,2348.00
2023-03-10T10:31:26.468Z,2472.00
2023-03-10T10:32:26.428Z,2824.00
2023-03-10T10:33:26.377Z,3008.00
2023-03-10T10:34:26.365Z,3252.00
2023-03-10T10:35:26.393Z,3188.00
2023-03-10T10:36:26.363Z,3296.00
2023-03-10T10:37:26.315Z,3360.00
2023-03-10T10:38:26.317Z,3768.00
2023-03-10T10:39:28.149Z,3336.00
2023-03-10T10:40:26.310Z,3360.00
2023-03-10T10:41:26.295Z,3360.00
2023-03-10T10:42:26.270Z,2996.00
2023-03-10T10:43:26.251Z,2804.00
2023-03-10T10:44:26.241Z,2476.00
2023-03-10T10:45:26.244Z,2444.00
2023-03-10T10:46:26.264Z,2716.00
2023-03-10T10:47:26.429Z,2616.00
2023-03-10T10:48:26.198Z,2556.00
2023-03-10T10:49:26.220Z,2468.00
2023-03-10T10:50:26.178Z,2532.00
2023-03-10T10:51:26.205Z,2388.00
2023-03-10T10:52:34.988Z,2192.00
2023-03-10T10:53:26.173Z,2108.00
2023-03-10T10:54:26.137Z,2264.00
2023-03-10T10:55:26.114Z,2324.00
2023-03-10T10:56:26.141Z,2512.00
2023-03-10T10:57:26.090Z,2556.00
2023-03-10T10:58:26.086Z,2540.00
2023-03-10T10:59:26.066Z,2376.00
2023-03-10T11:00:26.077Z,2396.00
2023-03-10T11:01:26.099Z,2592.00
2023-03-10T11:02:26.111Z,2272.00
2023-03-10T11:03:26.022Z,2252.00
2023-03-10T11:04:26.015Z,2452.00
2023-03-10T11:05:26.025Z,2604.00
2023-03-10T11:06:26.013Z,2416.00
2023-03-10T11:07:25.985Z,2460.00
2023-03-10T11:08:25.971Z,2548.00
2023-03-10T11:09:25.956Z,2696.00
2023-03-10T11:10:25.972Z,3052.00
2023-03-10T11:11:25.935Z,3108.00
2023-03-10T11:12:25.982Z,2928.00
2023-03-10T11:13:25.912Z,2976.00
2023-03-10T11:14:25.906Z,3000.00
2023-03-10T11:15:25.951Z,2944.00
2023-03-10T11:16:25.878Z,2860.00
2023-03-10T11:17:25.859Z,2996.00
2023-03-10T11:18:25.855Z,2608.00
2023-03-10T11:19:25.873Z,2632.00
2023-03-10T11:20:25.833Z,2808.00
2023-03-10T11:21:25.836Z,3320.00
2023-03-10T11:22:25.805Z,2836.00
2023-03-10T11:23:25.867Z,2664.00
2023-03-10T11:24:26.040Z,2888.00
2023-03-10T11:25:25.778Z,3076.00
2023-03-10T11:26:25.759Z,3556.00
2023-03-10T11:27:25.745Z,3620.00
2023-03-10T11:28:25.764Z,3580.00
2023-03-10T11:29:25.813Z,3608.00
2023-03-10T11:30:26.071Z,3608.00
2023-03-10T11:31:25.764Z,3684.00
2023-03-10T11:32:25.790Z,3120.00
2023-03-10T11:33:25.675Z,3256.00
2023-03-10T11:34:25.806Z,3588.00
2023-03-10T11:35:25.654Z,3772.00
2023-03-10T11:36:25.642Z,3172.00
2023-03-10T11:37:25.676Z,3668.00
2023-03-10T11:38:25.622Z,3052.00
2023-03-10T11:39:25.603Z,2936.00
2023-03-10T11:40:25.599Z,3084.00
2023-03-10T11:41:25.608Z,3784.00
2023-03-10T11:42:26.250Z,2908.00
2023-03-10T11:43:25.566Z,2756.00
2023-03-10T11:44:25.549Z,3420.00
2023-03-10T11:45:25.582Z,2980.00
2023-03-10T11:46:25.588Z,3100.00
2023-03-10T11:47:25.507Z,3400.00
2023-03-10T11:48:25.525Z,3268.00
2023-03-10T11:49:25.503Z,3436.00
2023-03-10T11:50:25.482Z,2880.00
2023-03-10T11:51:25.486Z,2776.00
2023-03-10T11:52:25.478Z,2844.00
2023-03-10T11:53:25.490Z,3620.00
2023-03-10T11:54:26.904Z,2728.00
2023-03-10T11:55:25.433Z,2796.00
2023-03-10T11:56:25.426Z,3564.00
2023-03-10T11:57:25.400Z,3592.00
2023-03-10T11:58:25.418Z,3832.00
2023-03-10T11:59:25.377Z,3224.00
2023-03-10T12:00:26.140Z,3876.00
2023-03-10T12:01:25.356Z,4004.00
2023-03-10T12:02:25.363Z,4240.00
2023-03-10T12:03:25.361Z,3172.00
2023-03-10T12:04:25.328Z,2884.00
2023-03-10T12:05:25.388Z,2696.00
2023-03-10T12:06:26.733Z,2984.00
2023-03-10T12:07:25.303Z,2624.00
2023-03-10T12:08:25.289Z,2960.00
2023-03-10T12:09:25.315Z,4380.00
2023-03-10T12:10:25.264Z,3056.00
2023-03-10T12:11:25.245Z,3800.00
2023-03-10T12:12:26.157Z,4596.00
2023-03-10T12:13:25.238Z,3948.00
2023-03-10T12:14:25.238Z,2664.00
2023-03-10T12:15:25.199Z,3504.00
2023-03-10T12:16:25.259Z,2452.00
2023-03-10T12:17:25.184Z,2552.00
2023-03-10T12:18:26.947Z,2896.00
2023-03-10T12:19:25.165Z,2544.00
2023-03-10T12:20:25.179Z,2608.00
2023-03-10T12:21:25.172Z,2796.00
2023-03-10T12:22:25.158Z,3060.00
2023-03-10T12:23:25.143Z,3604.00
2023-03-10T12:24:25.118Z,4804.00
2023-03-10T12:25:25.131Z,3592.00
2023-03-10T12:26:25.099Z,2544.00
2023-03-10T12:27:25.063Z,2416.00
2023-03-10T12:28:25.084Z,2972.00
2023-03-10T12:29:25.059Z,2460.00
2023-03-10T12:30:25.986Z,2644.00
2023-03-10T12:31:25.076Z,2624.00
2023-03-10T12:32:25.076Z,2460.00
2023-03-10T12:33:25.013Z,3716.00
2023-03-10T12:34:24.999Z,2236.00
2023-03-10T12:35:24.971Z,2236.00
2023-03-10T12:36:27.636Z,2296.00
2023-03-10T12:37:24.959Z,2328.00
2023-03-10T12:38:24.965Z,2728.00
2023-03-10T12:39:24.932Z,2796.00